createdAt,value
2022-12-06T00:00:32.360Z,100932.20
2022-12-06T00:05:46.650Z,100927.73
2022-12-06T00:10:52.472Z,100923.05
2022-12-06T00:16:02.629Z,100919.77
2022-12-06T00:21:10.414Z,100913.90
2022-12-06T00:26:16.796Z,100909.64
2022-12-06T00:31:25.003Z,100909.08
2022-12-06T00:36:32.529Z,100903.00
2022-12-06T00:41:38.800Z,100899.49
2022-12-06T00:46:44.544Z,100900.64
2022-12-06T00:51:50.333Z,100900.44
2022-12-06T00:56:56.123Z,100897.17
2022-12-06T01:02:01.933Z,100898.16
2022-12-06T01:07:07.591Z,100889.70
2022-12-06T01:12:13.320Z,100881.73
2022-12-06T01:17:19.208Z,100871.77
2022-12-06T01:22:25.680Z,100867.30
2022-12-06T01:27:31.394Z,100857.86
2022-12-06T01:32:36.994Z,100851.48
2022-12-06T01:37:42.901Z,100851.27
2022-12-06T01:42:48.681Z,100847.36
2022-12-06T01:47:54.351Z,100848.98
2022-12-06T01:53:03.950Z,100840.54
2022-12-06T01:58:13.462Z,100833.28
2022-12-06T02:03:23.880Z,100828.14
2022-12-06T02:08:30.344Z,100822.81
2022-12-06T02:13:37.392Z,100819.88
2022-12-06T02:18:50.903Z,100815.92
2022-12-06T02:24:36.001Z,100808.67
2022-12-06T02:30:09.501Z,100809.23
2022-12-06T02:35:25.068Z,100804.08
2022-12-06T02:40:36.693Z,100801.52
2022-12-06T02:52:41.798Z,100782.40
2022-12-06T02:57:51.226Z,100775.05
2022-12-06T03:03:06.853Z,100763.58
2022-12-06T03:08:22.015Z,100762.95
2022-12-06T03:13:34.410Z,100760.14
2022-12-06T03:18:47.818Z,100757.86
2022-12-06T03:23:55.191Z,100749.65
2022-12-06T03:29:03.785Z,100750.71
2022-12-06T03:34:15.123Z,100754.81
2022-12-06T03:39:28.228Z,100746.52
2022-12-06T03:44:35.517Z,100744.44
2022-12-06T03:49:46.598Z,100747.37
2022-12-06T03:54:51.016Z,100742.13
2022-12-06T03:59:56.978Z,100735.81
2022-12-06T04:05:03.023Z,100733.75
2022-12-06T04:10:09.933Z,100729.34
2022-12-06T04:15:16.537Z,100723.52
2022-12-06T04:20:22.300Z,100722.96
2022-12-06T04:25:28.233Z,100719.81
2022-12-06T04:30:53.066Z,100711.55
2022-12-06T04:36:17.686Z,100715.30
2022-12-06T04:41:42.553Z,100713.03
2022-12-06T04:46:48.423Z,100710.95
2022-12-06T04:51:54.488Z,100702.41
2022-12-06T04:57:01.292Z,100699.55
2022-12-06T05:02:08.061Z,100696.27
2022-12-06T05:07:14.067Z,100690.23
2022-12-06T05:12:20.061Z,100689.72
2022-12-06T05:17:25.705Z,100685.64
2022-12-06T05:22:35.108Z,100675.20
2022-12-06T05:27:41.978Z,100665.58
2022-12-06T05:32:50.282Z,100662.64
2022-12-06T05:37:58.432Z,100658.04
2022-12-06T05:43:04.185Z,100648.14
2022-12-06T05:48:10.327Z,100650.23
2022-12-06T05:53:17.612Z,100649.69
2022-12-06T05:58:23.413Z,100649.38
2022-12-06T06:03:29.424Z,100645.65
2022-12-06T06:08:35.127Z,100643.93
2022-12-06T06:13:41.160Z,100638.23
2022-12-06T06:18:47.001Z,100628.11
2022-12-06T06:23:52.777Z,100628.16
2022-12-06T06:28:58.569Z,100635.20
2022-12-06T06:34:04.205Z,100632.42
2022-12-06T06:39:10.065Z,100639.06
2022-12-06T06:44:42.341Z,100640.61
2022-12-06T06:49:48.162Z,100640.17
2022-12-06T06:54:54.034Z,100632.12
2022-12-06T07:00:00.117Z,100627.29
2022-12-06T07:05:07.282Z,100626.63
2022-12-06T07:10:13.964Z,100626.39
2022-12-06T07:15:19.845Z,100623.21
2022-12-06T07:20:25.731Z,100619.31
2022-12-06T07:25:32.478Z,100617.09
2022-12-06T07:30:38.211Z,100611.09
2022-12-06T07:36:11.388Z,100609.78
2022-12-06T07:41:31.236Z,100611.56
2022-12-06T07:46:37.719Z,100609.47
2022-12-06T07:51:44.206Z,100608.13
2022-12-06T07:56:49.975Z,100604.02
2022-12-06T08:01:55.853Z,100603.20
2022-12-06T08:07:01.672Z,100599.79
2022-12-06T08:12:08.927Z,100592.56
2022-12-06T08:17:15.328Z,100595.97
2022-12-06T08:22:21.031Z,100599.27
2022-12-06T08:27:26.698Z,100596.89
2022-12-06T08:32:32.328Z,100594.33
2022-12-06T08:37:38.084Z,100583.98
2022-12-06T08:42:45.938Z,100577.46
2022-12-06T08:47:51.536Z,100579.95
2022-12-06T08:52:57.409Z,100582.73
2022-12-06T08:58:03.073Z,100581.89
2022-12-06T09:03:08.737Z,100577.23
2022-12-06T09:08:14.560Z,100574.30
2022-12-06T09:13:20.481Z,100567.46
2022-12-06T09:18:26.425Z,100554.99
2022-12-06T09:23:32.104Z,100550.23
2022-12-06T09:28:39.620Z,100549.38
2022-12-06T09:33:46.285Z,100550.78
2022-12-06T09:38:56.853Z,100549.13
2022-12-06T09:44:20.477Z,100534.41
2022-12-06T09:49:42.935Z,100524.85
2022-12-06T09:55:03.364Z,100522.02
2022-12-06T10:00:19.044Z,100513.02
2022-12-06T10:05:42.210Z,100504.15
2022-12-06T10:10:57.482Z,100501.40
2022-12-06T10:16:12.418Z,100496.05
2022-12-06T10:21:26.251Z,100485.70
2022-12-06T10:26:39.889Z,100466.11
2022-12-06T10:31:56.886Z,100455.28
2022-12-06T10:37:10.066Z,100448.26
2022-12-06T10:42:24.297Z,100445.70
2022-12-06T10:47:37.674Z,100440.91
2022-12-06T10:52:49.060Z,100434.76
2022-12-06T10:58:02.816Z,100423.79
2022-12-06T11:03:17.556Z,100416.58
2022-12-06T11:08:26.652Z,100407.65
2022-12-06T11:13:38.129Z,100402.70
2022-12-06T11:18:45.400Z,100401.52
2022-12-06T11:23:59.199Z,100399.96
2022-12-06T11:29:10.984Z,100395.30
2022-12-06T11:34:20.504Z,100393.59
2022-12-06T11:39:27.020Z,100392.38
2022-12-06T11:44:38.679Z,100382.61
2022-12-06T11:49:46.177Z,100377.79
2022-12-06T11:54:56.658Z,100377.60
2022-12-06T12:00:17.576Z,100378.31
2022-12-06T12:05:30.544Z,100369.42
2022-12-06T12:10:39.839Z,100367.07
2022-12-06T12:15:53.204Z,100362.63
2022-12-06T12:21:00.381Z,100361.09
2022-12-06T12:26:13.935Z,100352.96
2022-12-06T12:31:21.961Z,100346.59
2022-12-06T12:36:30.121Z,100336.47
2022-12-06T12:41:42.375Z,100326.00
2022-12-06T12:46:53.728Z,100321.71
2022-12-06T12:52:01.469Z,100321.66
2022-12-06T12:57:13.293Z,100317.36
2022-12-06T13:02:27.549Z,100318.95
2022-12-06T13:07:40.026Z,100317.79
2022-12-06T13:12:49.300Z,100308.40
2022-12-06T13:18:00.117Z,100303.22
2022-12-06T13:23:12.831Z,100297.34
2022-12-06T13:28:26.148Z,100296.30
2022-12-06T13:33:36.651Z,100294.23
2022-12-06T13:38:43.587Z,100292.18
2022-12-06T13:43:52.673Z,100283.76
2022-12-06T13:48:59.706Z,100282.40
2022-12-06T13:54:31.605Z,100280.37
2022-12-06T13:59:42.219Z,100276.27
2022-12-06T14:04:48.102Z,100275.03
2022-12-06T14:09:54.134Z,100272.77
2022-12-06T14:15:01.996Z,100268.48
2022-12-06T14:20:21.632Z,100261.11
2022-12-06T14:25:30.530Z,100251.00
2022-12-06T14:30:36.846Z,100242.58
2022-12-06T14:35:49.118Z,100248.92
2022-12-06T14:41:14.341Z,100246.32
2022-12-06T14:46:23.747Z,100244.90
2022-12-06T14:51:42.568Z,100246.27
2022-12-06T14:56:49.277Z,100244.42
2022-12-06T15:01:56.622Z,100243.77
2022-12-06T15:07:02.961Z,100240.86
2022-12-06T15:12:42.337Z,100241.02
2022-12-06T15:17:48.826Z,100237.55
2022-12-06T15:22:54.513Z,100230.51
2022-12-06T15:28:00.409Z,100226.08
2022-12-06T15:33:06.212Z,100220.09
2022-12-06T15:38:12.608Z,100214.42
2022-12-06T15:43:26.485Z,100207.18
2022-12-06T15:48:37.600Z,100199.45
2022-12-06T15:53:44.192Z,100188.63
2022-12-06T15:58:51.094Z,100185.90
2022-12-06T16:03:57.995Z,100185.40
2022-12-06T16:09:03.848Z,100184.71
2022-12-06T16:14:10.156Z,100184.88
2022-12-06T16:19:16.362Z,100182.48
2022-12-06T16:24:22.718Z,100178.17
2022-12-06T16:29:28.572Z,100180.40
2022-12-06T16:34:34.356Z,100177.33
2022-12-06T16:39:40.392Z,100170.26
2022-12-06T16:44:52.292Z,100166.80
2022-12-06T16:49:58.069Z,100160.44
2022-12-06T16:55:04.337Z,100160.42
2022-12-06T17:00:14.491Z,100155.23
2022-12-06T17:05:24.373Z,100148.53
2022-12-06T17:10:30.073Z,100142.03
2022-12-06T17:15:35.748Z,100140.46
2022-12-06T17:20:41.513Z,100139.95
2022-12-06T17:25:55.274Z,100138.89
2022-12-06T17:31:01.268Z,100134.76
2022-12-06T17:36:09.541Z,100137.67
2022-12-06T17:41:39.017Z,100133.90
2022-12-06T17:46:44.965Z,100131.52
2022-12-06T17:51:51.586Z,100124.32
2022-12-06T17:56:58.085Z,100122.23
2022-12-06T18:02:15.184Z,100124.30
2022-12-06T18:07:22.832Z,100119.86
2022-12-06T18:12:32.016Z,100114.90
2022-12-06T18:17:39.436Z,100112.01
2022-12-06T18:22:45.128Z,100107.20
2022-12-06T18:27:51.361Z,100097.95
2022-12-06T18:33:00.073Z,100085.13
2022-12-06T18:38:06.127Z,100086.52
2022-12-06T18:43:13.340Z,100083.79
2022-12-06T18:48:19.610Z,100081.55
2022-12-06T18:53:25.758Z,100079.33
2022-12-06T18:58:32.948Z,100071.09
2022-12-06T19:03:39.175Z,100066.14
2022-12-06T19:08:46.206Z,100064.25
2022-12-06T19:13:55.024Z,100067.49
2022-12-06T19:19:03.612Z,100063.56
2022-12-06T19:24:10.397Z,100063.21
2022-12-06T19:29:17.268Z,100060.46
2022-12-06T19:34:25.128Z,100057.73
2022-12-06T19:39:30.920Z,100050.88
2022-12-06T19:44:37.112Z,100054.83
2022-12-06T19:49:43.270Z,100049.67
2022-12-06T19:54:48.977Z,100046.06
2022-12-06T19:59:56.551Z,100042.81
2022-12-06T20:05:02.604Z,100038.02
2022-12-06T20:10:11.874Z,100039.36
2022-12-06T20:15:19.408Z,100040.71
2022-12-06T20:20:25.636Z,100038.48
2022-12-06T20:25:31.477Z,100030.94
2022-12-06T20:30:37.256Z,100027.67
2022-12-06T20:35:43.601Z,100024.06
2022-12-06T20:40:49.366Z,100019.60
2022-12-06T20:45:59.821Z,100013.60
2022-12-06T20:51:11.002Z,100009.30
2022-12-06T20:56:20.226Z,100005.50
2022-12-06T21:01:28.875Z,99998.33
2022-12-06T21:06:34.896Z,99991.81
2022-12-06T21:11:40.877Z,99994.55
2022-12-06T21:16:47.010Z,99992.64
2022-12-06T21:21:58.637Z,99992.64
2022-12-06T21:27:04.830Z,99991.43
2022-12-06T21:32:11.881Z,99991.94
2022-12-06T21:37:19.753Z,99990.55
2022-12-06T21:42:26.750Z,99991.75
2022-12-06T21:47:32.692Z,99991.41
2022-12-06T21:52:38.888Z,99987.80
2022-12-06T21:57:44.669Z,99984.87
2022-12-06T22:02:54.091Z,99980.56
2022-12-06T22:08:00.362Z,99979.86
2022-12-06T22:13:06.109Z,99976.77
2022-12-06T22:18:11.983Z,99970.05
2022-12-06T22:23:18.099Z,99970.69
2022-12-06T22:28:23.888Z,99968.11
2022-12-06T22:33:32.966Z,99966.21
2022-12-06T22:38:40.028Z,99957.80
2022-12-06T22:43:46.479Z,99956.59
2022-12-06T22:48:52.625Z,99956.23
2022-12-06T22:54:01.040Z,99952.65
2022-12-06T22:59:07.310Z,99940.46
2022-12-06T23:04:13.302Z,99940.30
2022-12-06T23:09:19.182Z,99937.57
2022-12-06T23:14:24.945Z,99932.45
2022-12-06T23:19:30.680Z,99928.66
2022-12-06T23:24:36.381Z,99926.27
2022-12-06T23:29:42.294Z,99926.10
2022-12-06T23:34:48.000Z,99920.98
2022-12-06T23:39:56.542Z,99916.37
2022-12-06T23:45:02.490Z,99916.20
2022-12-06T23:50:10.281Z,99909.73
2022-12-06T23:55:16.187Z,99908.72
